sensor_id;sensor_type;location;lat;lon;timestamp;pressure;altitude;pressure_sealevel;temperature;humidity
20955;BME280;10636;19.390;-99.256;2023-01-28T00:02:27;77810.38;;;23.89;28.19
20955;BME280;10636;19.390;-99.256;2023-01-28T00:04:56;77810.97;;;23.87;28.13
20955;BME280;10636;19.390;-99.256;2023-01-28T00:07:26;77814.97;;;23.86;28.01
20955;BME280;10636;19.390;-99.256;2023-01-28T00:10:00;77820.25;;;23.84;27.88
20955;BME280;10636;19.390;-99.256;2023-01-28T00:12:36;77819.38;;;23.80;28.35
20955;BME280;10636;19.390;-99.256;2023-01-28T00:15:08;77822.75;;;23.80;28.77
20955;BME280;10636;19.390;-99.256;2023-01-28T00:17:39;77828.13;;;23.80;28.25
20955;BME280;10636;19.390;-99.256;2023-01-28T00:20:15;77832.78;;;23.80;28.79
20955;BME280;10636;19.390;-99.256;2023-01-28T00:22:50;77835.38;;;23.78;28.26
20955;BME280;10636;19.390;-99.256;2023-01-28T00:25:18;77830.72;;;23.78;27.98
20955;BME280;10636;19.390;-99.256;2023-01-28T00:27:48;77832.63;;;23.76;28.54
20955;BME280;10636;19.390;-99.256;2023-01-28T00:30:17;77835.91;;;23.74;28.64
20955;BME280;10636;19.390;-99.256;2023-01-28T00:32:46;77835.22;;;23.73;28.45
20955;BME280;10636;19.390;-99.256;2023-01-28T00:35:15;77837.81;;;23.71;27.86
20955;BME280;10636;19.390;-99.256;2023-01-28T00:37:45;77839.72;;;23.69;28.68
20955;BME280;10636;19.390;-99.256;2023-01-28T00:40:23;77838.34;;;23.68;28.77
20955;BME280;10636;19.390;-99.256;2023-01-28T00:42:53;77835.38;;;23.62;28.09
20955;BME280;10636;19.390;-99.256;2023-01-28T00:45:24;77841.63;;;23.66;28.29
20955;BME280;10636;19.390;-99.256;2023-01-28T00:47:57;77834.47;;;23.55;28.31
20955;BME280;10636;19.390;-99.256;2023-01-28T00:50:28;77844.22;;;23.64;28.32
20955;BME280;10636;19.390;-99.256;2023-01-28T00:52:57;77841.47;;;23.62;28.76
20955;BME280;10636;19.390;-99.256;2023-01-28T00:55:31;77849.47;;;23.62;29.13
20955;BME280;10636;19.390;-99.256;2023-01-28T00:57:59;77846.72;;;23.60;28.26
20955;BME280;10636;19.390;-99.256;2023-01-28T01:00:30;77853.31;;;23.57;28.45
20955;BME280;10636;19.390;-99.256;2023-01-28T01:03:01;77855.44;;;23.61;28.55
20955;BME280;10636;19.390;-99.256;2023-01-28T01:05:30;77858.72;;;23.59;28.21
20955;BME280;10636;19.390;-99.256;2023-01-28T01:08:03;77858.66;;;23.57;28.37
20955;BME280;10636;19.390;-99.256;2023-01-28T01:10:38;77866.59;;;23.55;27.76
20955;BME280;10636;19.390;-99.256;2023-01-28T01:13:07;77870.63;;;23.56;28.14
20955;BME280;10636;19.390;-99.256;2023-01-28T01:16:00;77866.50;;;23.53;27.68
20955;BME280;10636;19.390;-99.256;2023-01-28T01:18:29;77872.56;;;23.54;28.20
20955;BME280;10636;19.390;-99.256;2023-01-28T01:20:58;77872.47;;;23.52;27.32
20955;BME280;10636;19.390;-99.256;2023-01-28T01:23:26;77875.69;;;23.48;27.30
20955;BME280;10636;19.390;-99.256;2023-01-28T01:25:57;77874.38;;;23.49;27.29
20955;BME280;10636;19.390;-99.256;2023-01-28T01:28:28;77872.91;;;23.46;27.18
20955;BME280;10636;19.390;-99.256;2023-01-28T01:31:00;77886.38;;;23.48;27.03
20955;BME280;10636;19.390;-99.256;2023-01-28T01:33:30;77892.94;;;23.45;27.42
20955;BME280;10636;19.390;-99.256;2023-01-28T01:36:01;77899.50;;;23.42;27.36
20955;BME280;10636;19.390;-99.256;2023-01-28T01:38:30;77907.44;;;23.40;28.31
20955;BME280;10636;19.390;-99.256;2023-01-28T01:41:04;77899.34;;;23.38;27.58
20955;BME280;10636;19.390;-99.256;2023-01-28T01:43:47;77907.28;;;23.36;28.68
20955;BME280;10636;19.390;-99.256;2023-01-28T01:46:18;77918.50;;;23.32;28.15
20955;BME280;10636;19.390;-99.256;2023-01-28T01:48:48;77915.84;;;23.32;28.50
20955;BME280;10636;19.390;-99.256;2023-01-28T01:51:18;77915.66;;;23.28;28.65
20955;BME280;10636;19.390;-99.256;2023-01-28T01:53:51;77932.31;;;23.27;28.52
20955;BME280;10636;19.390;-99.256;2023-01-28T01:56:25;77933.44;;;23.21;28.63
20955;BME280;10636;19.390;-99.256;2023-01-28T01:58:57;77938.69;;;23.19;28.71
20955;BME280;10636;19.390;-99.256;2023-01-28T02:01:28;77943.91;;;23.15;28.01
20955;BME280;10636;19.390;-99.256;2023-01-28T02:04:04;77951.81;;;23.13;28.02
20955;BME280;10636;19.390;-99.256;2023-01-28T02:06:34;77955.72;;;23.10;28.44
20955;BME280;10636;19.390;-99.256;2023-01-28T02:09:18;77948.88;;;23.07;28.23
20955;BME280;10636;19.390;-99.256;2023-01-28T02:11:51;77956.84;;;23.05;27.86
20955;BME280;10636;19.390;-99.256;2023-01-28T02:14:22;77956.72;;;23.03;27.75
20955;BME280;10636;19.390;-99.256;2023-01-28T02:16:53;77961.94;;;22.99;28.27
20955;BME280;10636;19.390;-99.256;2023-01-28T02:19:23;77956.38;;;22.95;27.94
20955;BME280;10636;19.390;-99.256;2023-01-28T02:22:23;77963.19;;;22.98;27.91
20955;BME280;10636;19.390;-99.256;2023-01-28T02:28:04;77968.03;;;23.02;28.60
20955;BME280;10636;19.390;-99.256;2023-01-28T02:30:39;77968.03;;;23.02;28.53
20955;BME280;10636;19.390;-99.256;2023-01-28T02:33:14;77971.31;;;23.00;28.23
20955;BME280;10636;19.390;-99.256;2023-01-28T02:35:48;77972.69;;;23.01;28.13
20955;BME280;10636;19.390;-99.256;2023-01-28T02:38:24;77988.75;;;23.01;28.56
20955;BME280;10636;19.390;-99.256;2023-01-28T02:41:00;77987.44;;;23.02;28.72
20955;BME280;10636;19.390;-99.256;2023-01-28T02:43:37;77994.78;;;23.02;28.37
20955;BME280;10636;19.390;-99.256;2023-01-28T02:46:18;78000.13;;;23.02;27.71
20955;BME280;10636;19.390;-99.256;2023-01-28T02:49:08;78006.19;;;23.02;28.09
20955;BME280;10636;19.390;-99.256;2023-01-28T02:51:49;78000.81;;;23.02;27.94
20955;BME280;10636;19.390;-99.256;2023-01-28T02:54:27;78002.19;;;23.03;27.84
20955;BME280;10636;19.390;-99.256;2023-01-28T02:57:05;78010.22;;;23.03;27.85
20955;BME280;10636;19.390;-99.256;2023-01-28T02:59:43;78014.28;;;23.04;28.58
20955;BME280;10636;19.390;-99.256;2023-01-28T03:02:20;78009.53;;;23.03;28.54
20955;BME280;10636;19.390;-99.256;2023-01-28T03:04:55;78004.88;;;23.03;28.53
20955;BME280;10636;19.390;-99.256;2023-01-28T03:07:27;78015.00;;;23.05;28.10
20955;BME280;10636;19.390;-99.256;2023-01-28T03:09:57;78015.69;;;23.05;28.38
20955;BME280;10636;19.390;-99.256;2023-01-28T03:12:29;78025.16;;;23.08;28.34
20955;BME280;10636;19.390;-99.256;2023-01-28T03:15:19;78018.25;;;23.03;28.25
20955;BME280;10636;19.390;-99.256;2023-01-28T03:18:07;78019.63;;;23.04;28.08
20955;BME280;10636;19.390;-99.256;2023-01-28T03:21:00;78021.03;;;23.05;28.22
20955;BME280;10636;19.390;-99.256;2023-01-28T03:23:49;78020.34;;;23.05;27.79
20955;BME280;10636;19.390;-99.256;2023-01-28T03:26:43;78017.91;;;22.95;28.34
20955;BME280;10636;19.390;-99.256;2023-01-28T03:29:31;78028.25;;;23.03;27.67
20955;BME280;10636;19.390;-99.256;2023-01-28T03:32:19;78032.91;;;23.02;27.86
20955;BME280;10636;19.390;-99.256;2023-01-28T03:35:06;78031.53;;;23.01;27.82
20955;BME280;10636;19.390;-99.256;2023-01-28T03:37:53;78041.56;;;23.01;27.72
20955;BME280;10636;19.390;-99.256;2023-01-28T03:40:25;78028.41;;;22.91;27.84
20955;BME280;10636;19.390;-99.256;2023-01-28T03:42:54;78038.19;;;23.00;27.28
20955;BME280;10636;19.390;-99.256;2023-01-28T03:45:23;78050.88;;;23.00;27.64
20955;BME280;10636;19.390;-99.256;2023-01-28T03:47:53;78043.97;;;22.94;27.31
20955;BME280;10636;19.390;-99.256;2023-01-28T03:50:22;78041.97;;;22.95;27.88
20955;BME280;10636;19.390;-99.256;2023-01-28T03:52:50;78057.00;;;23.02;28.34
20955;BME280;10636;19.390;-99.256;2023-01-28T03:55:19;78054.31;;;23.02;27.73
20955;BME280;10636;19.390;-99.256;2023-01-28T03:57:49;78065.03;;;23.02;27.54
20955;BME280;10636;19.390;-99.256;2023-01-28T04:00:18;78067.63;;;23.00;27.65
20955;BME280;10636;19.390;-99.256;2023-01-28T04:02:47;78058.09;;;22.97;27.75
20955;BME280;10636;19.390;-99.256;2023-01-28T04:05:17;78065.03;;;23.02;27.58
20955;BME280;10636;19.390;-99.256;2023-01-28T04:07:46;78067.63;;;23.00;28.01
20955;BME280;10636;19.390;-99.256;2023-01-28T04:10:17;78059.59;;;23.00;27.75
20955;BME280;10636;19.390;-99.256;2023-01-28T04:12:46;78061.56;;;23.00;27.89
20955;BME280;10636;19.390;-99.256;2023-01-28T04:15:16;78063.44;;;22.97;28.01
20955;BME280;10636;19.390;-99.256;2023-01-28T04:17:44;78065.94;;;22.93;27.90
20955;BME280;10636;19.390;-99.256;2023-01-28T04:20:13;78076.81;;;22.97;28.15
20955;BME280;10636;19.390;-99.256;2023-01-28T04:22:44;78071.47;;;22.97;27.70
20955;BME280;10636;19.390;-99.256;2023-01-28T04:25:12;78075.53;;;22.98;28.15
20955;BME280;10636;19.390;-99.256;2023-01-28T04:27:41;78067.50;;;22.98;28.18
20955;BME280;10636;19.390;-99.256;2023-01-28T04:30:10;78076.81;;;22.97;28.36
20955;BME280;10636;19.390;-99.256;2023-01-28T04:32:39;78082.28;;;22.99;28.73
20955;BME280;10636;19.390;-99.256;2023-01-28T04:35:08;78083.56;;;22.98;28.61
20955;BME280;10636;19.390;-99.256;2023-01-28T04:37:37;78080.00;;;22.93;28.79
20955;BME280;10636;19.390;-99.256;2023-01-28T04:40:08;78080.19;;;22.98;29.09
20955;BME280;10636;19.390;-99.256;2023-01-28T04:42:37;78079.50;;;22.97;28.42
20955;BME280;10636;19.390;-99.256;2023-01-28T04:45:07;78088.81;;;22.96;28.40
20955;BME280;10636;19.390;-99.256;2023-01-28T04:47:36;78082.78;;;22.95;28.59
20955;BME280;10636;19.390;-99.256;2023-01-28T04:50:05;78087.44;;;22.95;29.05
20955;BME280;10636;19.390;-99.256;2023-01-28T04:52:36;78088.81;;;22.96;29.35
20955;BME280;10636;19.390;-99.256;2023-01-28T04:55:07;78080.53;;;22.90;29.17
20955;BME280;10636;19.390;-99.256;2023-01-28T04:57:36;78090.00;;;22.93;29.29
20955;BME280;10636;19.390;-99.256;2023-01-28T05:00:06;78091.41;;;22.94;28.90
20955;BME280;10636;19.390;-99.256;2023-01-28T05:02:35;78088.63;;;22.92;28.90
20955;BME280;10636;19.390;-99.256;2023-01-28T05:05:04;78087.34;;;22.93;28.87
20955;BME280;10636;19.390;-99.256;2023-01-28T05:07:34;78092.69;;;22.93;28.91
20955;BME280;10636;19.390;-99.256;2023-01-28T05:10:03;78093.97;;;22.92;28.98
20955;BME280;10636;19.390;-99.256;2023-01-28T05:12:34;78085.88;;;22.90;29.02
20955;BME280;10636;19.390;-99.256;2023-01-28T05:15:03;78091.22;;;22.90;29.30
20955;BME280;10636;19.390;-99.256;2023-01-28T05:17:31;78095.88;;;22.89;29.72
20955;BME280;10636;19.390;-99.256;2023-01-28T05:20:00;78084.50;;;22.89;29.31
20955;BME280;10636;19.390;-99.256;2023-01-28T05:22:29;78089.00;;;22.86;29.16
20955;BME280;10636;19.390;-99.256;2023-01-28T05:24:58;78092.38;;;22.87;30.02
20955;BME280;10636;19.390;-99.256;2023-01-28T05:27:26;78085.66;;;22.86;30.23
20955;BME280;10636;19.390;-99.256;2023-01-28T05:29:57;78084.28;;;22.85;29.34
20955;BME280;10636;19.390;-99.256;2023-01-28T05:32:25;78086.25;;;22.84;29.71
20955;BME280;10636;19.390;-99.256;2023-01-28T05:34:54;78086.84;;;22.83;29.41
20955;BME280;10636;19.390;-99.256;2023-01-28T05:37:23;78082.09;;;22.81;30.18
20955;BME280;10636;19.390;-99.256;2023-01-28T05:39:51;78085.38;;;22.80;30.25
20955;BME280;10636;19.390;-99.256;2023-01-28T05:42:20;78082.69;;;22.80;30.40
20955;BME280;10636;19.390;-99.256;2023-01-28T05:44:48;78076.56;;;22.77;30.51
20955;BME280;10636;19.390;-99.256;2023-01-28T05:47:19;78075.97;;;22.79;29.67
20955;BME280;10636;19.390;-99.256;2023-01-28T05:49:47;78087.34;;;22.79;29.89
20955;BME280;10636;19.390;-99.256;2023-01-28T05:52:16;78082.00;;;22.79;30.45
20955;BME280;10636;19.390;-99.256;2023-01-28T05:54:44;78074.50;;;22.76;30.24
20955;BME280;10636;19.390;-99.256;2023-01-28T05:57:13;78079.22;;;22.77;30.18
20955;BME280;10636;19.390;-99.256;2023-01-28T05:59:46;78085.78;;;22.74;30.34
20955;BME280;10636;19.390;-99.256;2023-01-28T06:02:26;78070.31;;;22.73;30.74
20955;BME280;10636;19.390;-99.256;2023-01-28T06:04:55;78069.63;;;22.72;29.98
20955;BME280;10636;19.390;-99.256;2023-01-28T06:07:23;78080.94;;;22.70;30.34
20955;BME280;10636;19.390;-99.256;2023-01-28T06:09:54;78068.94;;;22.71;30.92
20955;BME280;10636;19.390;-99.256;2023-01-28T06:12:23;78061.63;;;22.72;30.64
20955;BME280;10636;19.390;-99.256;2023-01-28T06:14:52;78065.59;;;22.71;30.28
20955;BME280;10636;19.390;-99.256;2023-01-28T06:17:20;78067.56;;;22.70;30.86
20955;BME280;10636;19.390;-99.256;2023-01-28T06:19:51;78079.56;;;22.69;30.53
20955;BME280;10636;19.390;-99.256;2023-01-28T06:22:19;78066.88;;;22.70;30.99
20955;BME280;10636;19.390;-99.256;2023-01-28T06:24:48;78071.44;;;22.67;30.86
20955;BME280;10636;19.390;-99.256;2023-01-28T06:27:17;78072.16;;;22.68;31.00
20955;BME280;10636;19.390;-99.256;2023-01-28T06:29:45;78055.41;;;22.67;30.30
20955;BME280;10636;19.390;-99.256;2023-01-28T06:32:14;78062.72;;;22.67;30.56
20955;BME280;10636;19.390;-99.256;2023-01-28T06:34:43;78057.97;;;22.65;30.33
20955;BME280;10636;19.390;-99.256;2023-01-28T06:37:15;78064.00;;;22.66;30.87
20955;BME280;10636;19.390;-99.256;2023-01-28T06:39:57;78062.63;;;22.65;31.25
20955;BME280;10636;19.390;-99.256;2023-01-28T06:42:26;78052.34;;;22.59;30.44
20955;BME280;10636;19.390;-99.256;2023-01-28T06:44:54;78060.56;;;22.63;30.44
20955;BME280;10636;19.390;-99.256;2023-01-28T06:47:24;78065.22;;;22.63;31.38
20955;BME280;10636;19.390;-99.256;2023-01-28T06:49:52;78059.19;;;22.62;30.45
20955;BME280;10636;19.390;-99.256;2023-01-28T06:52:23;78059.88;;;22.63;31.41
20955;BME280;10636;19.390;-99.256;2023-01-28T06:54:51;78067.22;;;22.62;30.64
20955;BME280;10636;19.390;-99.256;2023-01-28T06:57:28;78071.16;;;22.61;30.70
20955;BME280;10636;19.390;-99.256;2023-01-28T07:00:14;78056.41;;;22.60;31.32
20955;BME280;10636;19.390;-99.256;2023-01-28T07:02:45;78056.50;;;22.62;30.67
20955;BME280;10636;19.390;-99.256;2023-01-28T07:05:13;78050.38;;;22.60;31.23
20955;BME280;10636;19.390;-99.256;2023-01-28T07:07:44;78061.75;;;22.60;30.75
20955;BME280;10636;19.390;-99.256;2023-01-28T07:10:12;78060.38;;;22.59;30.68
20955;BME280;10636;19.390;-99.256;2023-01-28T07:12:41;78054.34;;;22.59;31.11
20955;BME280;10636;19.390;-99.256;2023-01-28T07:15:12;78053.44;;;22.54;31.46
20955;BME280;10636;19.390;-99.256;2023-01-28T07:17:46;78058.88;;;22.56;30.98
20955;BME280;10636;19.390;-99.256;2023-01-28T07:20:23;78066.91;;;22.56;31.54
20955;BME280;10636;19.390;-99.256;2023-01-28T07:23:11;78058.81;;;22.54;31.06
20955;BME280;10636;19.390;-99.256;2023-01-28T07:25:52;78061.47;;;22.54;31.68
20955;BME280;10636;19.390;-99.256;2023-01-28T07:28:21;78058.81;;;22.54;30.98
20955;BME280;10636;19.390;-99.256;2023-01-28T07:30:50;78053.44;;;22.54;30.85
20955;BME280;10636;19.390;-99.256;2023-01-28T07:33:19;78064.16;;;22.54;30.87
20955;BME280;10636;19.390;-99.256;2023-01-28T07:35:48;78061.38;;;22.52;31.43
20955;BME280;10636;19.390;-99.256;2023-01-28T07:38:18;78065.31;;;22.51;31.14
20955;BME280;10636;19.390;-99.256;2023-01-28T07:40:49;78057.31;;;22.51;30.73
20955;BME280;10636;19.390;-99.256;2023-01-28T07:43:18;78057.22;;;22.49;31.21
20955;BME280;10636;19.390;-99.256;2023-01-28T07:45:47;78057.84;;;22.48;31.37
20955;BME280;10636;19.390;-99.256;2023-01-28T07:48:20;78046.34;;;22.45;30.96
20955;BME280;10636;19.390;-99.256;2023-01-28T07:50:59;78042.38;;;22.46;31.65
20955;BME280;10636;19.390;-99.256;2023-01-28T07:53:29;78041.69;;;22.45;31.59
20955;BME280;10636;19.390;-99.256;2023-01-28T07:56:00;78038.31;;;22.45;31.74
20955;BME280;10636;19.390;-99.256;2023-01-28T07:58:30;78039.63;;;22.44;31.18
20955;BME280;10636;19.390;-99.256;2023-01-28T08:01:01;78036.84;;;22.42;31.39
20955;BME280;10636;19.390;-99.256;2023-01-28T08:03:44;78040.22;;;22.42;31.89
20955;BME280;10636;19.390;-99.256;2023-01-28T08:06:15;78029.34;;;22.38;31.68
20955;BME280;10636;19.390;-99.256;2023-01-28T08:08:56;78038.72;;;22.39;31.31
20955;BME280;10636;19.390;-99.256;2023-01-28T08:11:29;78025.28;;;22.37;31.90
20955;BME280;10636;19.390;-99.256;2023-01-28T08:14:03;78028.72;;;22.40;31.34
20955;BME280;10636;19.390;-99.256;2023-01-28T08:16:37;78027.34;;;22.39;30.98
20955;BME280;10636;19.390;-99.256;2023-01-28T08:19:13;78033.31;;;22.37;31.63
20955;BME280;10636;19.390;-99.256;2023-01-28T08:21:43;78029.94;;;22.37;31.78
20955;BME280;10636;19.390;-99.256;2023-01-28T08:24:23;78028.66;;;22.38;31.41
20955;BME280;10636;19.390;-99.256;2023-01-28T08:26:51;78018.56;;;22.36;31.19
20955;BME280;10636;19.390;-99.256;2023-01-28T08:29:24;78016.47;;;22.35;31.78
20955;BME280;10636;19.390;-99.256;2023-01-28T08:31:53;78019.16;;;22.35;32.01
20955;BME280;10636;19.390;-99.256;2023-01-28T08:34:22;78013.03;;;22.32;31.43
20955;BME280;10636;19.390;-99.256;2023-01-28T08:36:51;78017.16;;;22.35;31.45
20955;BME280;10636;19.390;-99.256;2023-01-28T08:39:21;78010.44;;;22.34;31.92
20955;BME280;10636;19.390;-99.256;2023-01-28T08:41:50;78011.13;;;22.35;32.02
20955;BME280;10636;19.390;-99.256;2023-01-28T08:44:19;78009.06;;;22.33;31.29
20955;BME280;10636;19.390;-99.256;2023-01-28T08:46:49;78013.72;;;22.33;32.08
20955;BME280;10636;19.390;-99.256;2023-01-28T08:49:21;78009.66;;;22.32;32.17
20955;BME280;10636;19.390;-99.256;2023-01-28T08:51:58;78013.63;;;22.31;32.00
20955;BME280;10636;19.390;-99.256;2023-01-28T08:54:36;78015.00;;;22.32;32.04
20955;BME280;10636;19.390;-99.256;2023-01-28T08:57:07;78002.28;;;22.16;32.19
20955;BME280;10636;19.390;-99.256;2023-01-28T08:59:50;78012.22;;;22.30;31.81
20955;BME280;10636;19.390;-99.256;2023-01-28T09:02:26;78014.22;;;22.29;32.02
20955;BME280;10636;19.390;-99.256;2023-01-28T09:04:59;78012.84;;;22.28;32.04
20955;BME280;10636;19.390;-99.256;2023-01-28T09:07:35;78010.75;;;22.27;31.86
20955;BME280;10636;19.390;-99.256;2023-01-28T09:10:09;78020.06;;;22.26;32.31
20955;BME280;10636;19.390;-99.256;2023-01-28T09:12:54;78017.97;;;22.24;32.15
20955;BME280;10636;19.390;-99.256;2023-01-28T09:15:25;78021.44;;;22.27;32.13
20955;BME280;10636;19.390;-99.256;2023-01-28T09:17:57;78017.28;;;22.24;31.81
20955;BME280;10636;19.390;-99.256;2023-01-28T09:20:28;78007.97;;;22.25;32.00
20955;BME280;10636;19.390;-99.256;2023-01-28T09:23:00;78012.56;;;22.22;31.71
20955;BME280;10636;19.390;-99.256;2023-01-28T09:25:35;78014.53;;;22.22;32.49
20955;BME280;10636;19.390;-99.256;2023-01-28T09:28:06;78000.91;;;22.15;32.34
20955;BME280;10636;19.390;-99.256;2023-01-28T09:30:41;77995.94;;;22.10;32.07
20955;BME280;10636;19.390;-99.256;2023-01-28T09:33:15;78009.00;;;22.17;32.50
20955;BME280;10636;19.390;-99.256;2023-01-28T09:35:52;78017.69;;;22.18;32.29
20955;BME280;10636;19.390;-99.256;2023-01-28T09:38:33;78007.63;;;22.16;31.84
20955;BME280;10636;19.390;-99.256;2023-01-28T09:41:22;78017.00;;;22.17;32.16
20955;BME280;10636;19.390;-99.256;2023-01-28T09:44:05;78007.41;;;22.12;32.06
20955;BME280;10636;19.390;-99.256;2023-01-28T09:46:42;78018.31;;;22.16;32.17
20955;BME280;10636;19.390;-99.256;2023-01-28T09:49:20;78016.31;;;22.17;32.04
20955;BME280;10636;19.390;-99.256;2023-01-28T09:51:59;78023.66;;;22.16;32.28
20955;BME280;10636;19.390;-99.256;2023-01-28T09:54:36;78018.19;;;22.14;31.70
20955;BME280;10636;19.390;-99.256;2023-01-28T09:57:24;78018.09;;;22.12;32.42
20955;BME280;10636;19.390;-99.256;2023-01-28T10:00:14;78028.09;;;22.12;32.48
20955;BME280;10636;19.390;-99.256;2023-01-28T10:03:23;78026.03;;;22.10;32.48
20955;BME280;10636;19.390;-99.256;2023-01-28T10:06:17;78033.22;;;22.08;32.54
20955;BME280;10636;19.390;-99.256;2023-01-28T10:09:23;78031.16;;;22.06;32.25
20955;BME280;10636;19.390;-99.256;2023-01-28T10:12:09;78031.16;;;22.06;31.76
20955;BME280;10636;19.390;-99.256;2023-01-28T10:18:06;78037.09;;;22.05;31.88
20955;BME280;10636;19.390;-99.256;2023-01-28T10:20:41;78037.66;;;22.03;32.16
20955;BME280;10636;19.390;-99.256;2023-01-28T10:23:16;78037.66;;;22.03;32.45
20955;BME280;10636;19.390;-99.256;2023-01-28T10:25:59;78032.31;;;22.03;31.68
20955;BME280;10636;19.390;-99.256;2023-01-28T10:28:34;78029.47;;;21.99;32.13
20955;BME280;10636;19.390;-99.256;2023-01-28T10:31:16;78037.50;;;21.99;32.56
20955;BME280;10636;19.390;-99.256;2023-01-28T10:33:45;78030.66;;;21.96;32.34
20955;BME280;10636;19.390;-99.256;2023-01-28T10:36:15;78033.34;;;21.96;32.25
20955;BME280;10636;19.390;-99.256;2023-01-28T10:38:47;78026.63;;;21.95;32.45
20955;BME280;10636;19.390;-99.256;2023-01-28T10:41:25;78039.38;;;21.97;31.85
20955;BME280;10636;19.390;-99.256;2023-01-28T10:44:15;78034.03;;;21.97;32.36
20955;BME280;10636;19.390;-99.256;2023-01-28T10:46:50;78033.34;;;21.96;32.08
20955;BME280;10636;19.390;-99.256;2023-01-28T10:49:26;78045.31;;;21.95;32.15
20955;BME280;10636;19.390;-99.256;2023-01-28T10:52:10;78038.47;;;21.92;32.50
20955;BME280;10636;19.390;-99.256;2023-01-28T10:54:41;78040.25;;;21.87;32.17
20955;BME280;10636;19.390;-99.256;2023-01-28T10:57:18;78029.69;;;21.89;32.26
20955;BME280;10636;19.390;-99.256;2023-01-28T10:59:51;78031.06;;;21.90;32.20
20955;BME280;10636;19.390;-99.256;2023-01-28T11:02:27;78037.59;;;21.87;32.02
20955;BME280;10636;19.390;-99.256;2023-01-28T11:05:02;78041.75;;;21.90;32.25
20955;BME280;10636;19.390;-99.256;2023-01-28T11:07:32;78047.09;;;21.90;32.07
20955;BME280;10636;19.390;-99.256;2023-01-28T11:10:02;78042.34;;;21.89;32.13
20955;BME280;10636;19.390;-99.256;2023-01-28T11:12:40;78044.91;;;21.87;32.17
20955;BME280;10636;19.390;-99.256;2023-01-28T11:15:16;78041.53;;;21.86;31.78
20955;BME280;10636;19.390;-99.256;2023-01-28T11:17:49;78046.19;;;21.86;32.30
20955;BME280;10636;19.390;-99.256;2023-01-28T11:20:20;78056.09;;;21.83;32.22
20955;BME280;10636;19.390;-99.256;2023-01-28T11:22:50;78055.97;;;21.81;31.68
20955;BME280;10636;19.390;-99.256;2023-01-28T11:25:25;78058.56;;;21.79;32.20
20955;BME280;10636;19.390;-99.256;2023-01-28T11:27:55;78057.19;;;21.78;32.26
20955;BME280;10636;19.390;-99.256;2023-01-28T11:30:27;78072.50;;;21.78;31.76
20955;BME280;10636;19.390;-99.256;2023-01-28T11:33:01;78065.78;;;21.77;32.43
20955;BME280;10636;19.390;-99.256;2023-01-28T11:35:32;78061.63;;;21.74;32.01
20955;BME280;10636;19.390;-99.256;2023-01-28T11:38:01;78068.94;;;21.73;31.95
20955;BME280;10636;19.390;-99.256;2023-01-28T11:40:30;78064.88;;;21.72;31.49
20955;BME280;10636;19.390;-99.256;2023-01-28T11:42:58;78064.19;;;21.72;32.41
20955;BME280;10636;19.390;-99.256;2023-01-28T11:45:37;78066.84;;;21.72;31.62
20955;BME280;10636;19.390;-99.256;2023-01-28T11:48:28;78069.53;;;21.72;32.35
20955;BME280;10636;19.390;-99.256;2023-01-28T11:51:02;78074.84;;;21.72;32.40
20955;BME280;10636;19.390;-99.256;2023-01-28T11:54:14;78081.41;;;21.69;32.27
20955;BME280;10636;19.390;-99.256;2023-01-28T11:57:01;78076.06;;;21.69;31.65
20955;BME280;10636;19.390;-99.256;2023-01-28T11:59:49;78078.59;;;21.66;32.31
20955;BME280;10636;19.390;-99.256;2023-01-28T12:02:47;78077.22;;;21.65;31.38
20955;BME280;10636;19.390;-99.256;2023-01-28T12:05:54;78085.16;;;21.63;31.67
20955;BME280;10636;19.390;-99.256;2023-01-28T12:08:25;78083.78;;;21.62;31.95
20955;BME280;10636;19.390;-99.256;2023-01-28T12:11:17;78085.16;;;21.63;31.82
20955;BME280;10636;19.390;-99.256;2023-01-28T12:14:23;78091.66;;;21.60;31.73
20955;BME280;10636;19.390;-99.256;2023-01-28T12:17:09;78095.72;;;21.61;31.71
20955;BME280;10636;19.390;-99.256;2023-01-28T12:20:00;78096.31;;;21.60;31.93
20955;BME280;10636;19.390;-99.256;2023-01-28T12:26:02;78106.28;;;21.59;31.32
20955;BME280;10636;19.390;-99.256;2023-01-28T12:28:51;78086.72;;;21.41;31.80
20955;BME280;10636;19.390;-99.256;2023-01-28T12:31:41;78107.47;;;21.56;31.57
20955;BME280;10636;19.390;-99.256;2023-01-28T12:34:47;78112.81;;;21.56;31.89
20955;BME280;10636;19.390;-99.256;2023-01-28T12:37:26;78118.03;;;21.54;31.96
20955;BME280;10636;19.390;-99.256;2023-01-28T12:40:11;78122.00;;;21.53;31.51
20955;BME280;10636;19.390;-99.256;2023-01-28T12:42:53;78114.69;;;21.54;31.67
20955;BME280;10636;19.390;-99.256;2023-01-28T12:45:30;78128.63;;;21.52;31.94
20955;BME280;10636;19.390;-99.256;2023-01-28T12:48:08;78128.63;;;21.52;31.94
20955;BME280;10636;19.390;-99.256;2023-01-28T12:50:47;78130.00;;;21.53;31.54
20955;BME280;10636;19.390;-99.256;2023-01-28T12:53:28;78127.13;;;21.49;31.89
20955;BME280;10636;19.390;-99.256;2023-01-28T12:56:07;78132.56;;;21.51;32.12
20955;BME280;10636;19.390;-99.256;2023-01-28T12:58:44;78135.22;;;21.51;31.83
20955;BME280;10636;19.390;-99.256;2023-01-28T13:01:28;78137.91;;;21.51;31.92
20955;BME280;10636;19.390;-99.256;2023-01-28T13:04:08;78139.78;;;21.49;32.38
20955;BME280;10636;19.390;-99.256;2023-01-28T13:06:41;78148.38;;;21.47;31.67
20955;BME280;10636;19.390;-99.256;2023-01-28T13:09:15;78143.03;;;21.47;32.47
20955;BME280;10636;19.390;-99.256;2023-01-28T13:11:46;78151.16;;;21.49;32.11
20955;BME280;10636;19.390;-99.256;2023-01-28T13:14:19;78157.16;;;21.50;32.17
20955;BME280;10636;19.390;-99.256;2023-01-28T13:16:49;78159.16;;;21.49;32.00
20955;BME280;10636;19.390;-99.256;2023-01-28T13:19:23;78164.38;;;21.47;32.49
20955;BME280;10636;19.390;-99.256;2023-01-28T13:21:52;78169.50;;;21.43;32.27
20955;BME280;10636;19.390;-99.256;2023-01-28T13:24:34;78169.50;;;21.43;32.51
20955;BME280;10636;19.390;-99.256;2023-01-28T13:27:20;78166.25;;;21.45;32.22
20955;BME280;10636;19.390;-99.256;2023-01-28T13:30:28;78155.84;;;21.37;32.59